Time;durP1;ratioP1;P1;durP2;ratioP2;P2;SDS_P1;SDS_P2;PMS_P1;PMS_P2;Temp;Humidity;BMP_temperature;BMP_pressure;BME280_temperature;BME280_humidity;BME280_pressure;Samples;Min_cycle;Max_cycle;Signal;HPM_P1;HPM_P2
2022/06/08 00:02:21;;;;;;;;;;;16.70;91.40;;;;;;6120197;23;19982;-97
2022/06/08 00:04:47;;;;;;;;;;;16.60;91.10;;;;;;6120365;23;19944;-96
2022/06/08 00:07:14;;;;;;;;;;;16.60;91.30;;;;;;6091686;23;19938;-96
2022/06/08 00:09:41;;;;;;;;;;;16.60;91.40;;;;;;6097073;23;19942;-96
2022/06/08 00:12:07;;;;;;;;;;;16.70;91.60;;;;;;6122720;23;19954;-96
2022/06/08 00:14:37;;;;;;;;;;;16.70;91.50;;;;;;6148148;23;19939;-96
2022/06/08 00:17:03;;;;;;;;;;;16.50;91.00;;;;;;6122257;23;19960;-96
2022/06/08 00:19:30;;;;;;;;;;;16.50;91.60;;;;;;6121494;23;19980;-96
2022/06/08 00:21:56;;;;;;;;;;;16.40;91.80;;;;;;6148746;23;19976;-96
2022/06/08 00:24:22;;;;;;;;;;;16.30;91.50;;;;;;6122428;23;19943;-96
2022/06/08 00:26:48;;;;;;;;;;;16.30;91.40;;;;;;6123492;23;19942;-96
2022/06/08 00:29:14;;;;;;;;;;;16.30;91.60;;;;;;6121804;23;19945;-96
2022/06/08 00:31:40;;;;;;;;;;;16.40;91.80;;;;;;6121465;23;19941;-96
2022/06/08 00:34:07;;;;;;;;;;;16.40;91.80;;;;;;6122400;23;19979;-96
2022/06/08 00:36:34;;;;;;;;;;;16.30;91.50;;;;;;6123749;23;19941;-96
2022/06/08 00:38:59;;;;;;;;;;;16.30;91.20;;;;;;6122512;23;19942;-96
2022/06/08 00:41:36;;;;;;;;;;;16.20;91.00;;;;;;6148647;23;19960;-96
2022/06/08 00:44:05;;;;;;;;;;;16.30;91.30;;;;;;6124260;23;19980;-96
2022/06/08 00:46:31;;;;;;;;;;;16.30;91.20;;;;;;6124802;23;19952;-96
2022/06/08 00:49:00;;;;;;;;;;;16.30;91.20;;;;;;6149937;23;19937;-96
2022/06/08 00:51:26;;;;;;;;;;;16.30;91.50;;;;;;6123514;23;19992;-96
2022/06/08 00:53:58;;;;;;;;;;;16.40;91.60;;;;;;6122948;23;20390;-96
2022/06/08 00:56:30;;;;;;;;;;;16.30;91.20;;;;;;6123437;23;19972;-96
2022/06/08 00:58:57;;;;;;;;;;;16.30;91.00;;;;;;6123622;23;20008;-96
2022/06/08 01:01:23;;;;;;;;;;;16.30;90.80;;;;;;6123858;23;19969;-96
2022/06/08 01:03:52;;;;;;;;;;;16.30;90.80;;;;;;6123393;23;19951;-96
2022/06/08 01:06:21;;;;;;;;;;;16.30;90.80;;;;;;6148443;23;19934;-96
2022/06/08 01:08:52;;;;;;;;;;;16.30;90.80;;;;;;6147407;23;19961;-96
2022/06/08 01:11:23;;;;;;;;;;;16.30;90.90;;;;;;6102551;23;19978;-96
2022/06/08 01:13:50;;;;;;;;;;;16.30;91.30;;;;;;6094883;23;19952;-96
2022/06/08 01:16:17;;;;;;;;;;;16.30;91.40;;;;;;6095041;23;19996;-96
2022/06/08 01:18:43;;;;;;;;;;;16.40;92.10;;;;;;6094574;23;19942;-96
2022/06/08 01:21:18;;;;;;;;;;;16.40;91.40;;;;;;6094131;23;20277;-96
2022/06/08 01:23:49;;;;;;;;;;;16.30;91.20;;;;;;6094032;23;19936;-96
2022/06/08 01:26:18;;;;;;;;;;;16.30;90.90;;;;;;6094610;23;19939;-96
2022/06/08 01:29:02;;;;;;;;;;;16.30;90.80;;;;;;6093442;23;19934;-96
2022/06/08 01:31:41;;;;;;;;;;;16.30;90.70;;;;;;6118655;23;19940;-96
2022/06/08 01:34:23;;;;;;;;;;;16.30;90.80;;;;;;6093626;23;19965;-96
2022/06/08 01:37:05;;;;;;;;;;;16.30;90.80;;;;;;6093635;23;19991;-96
2022/06/08 01:39:54;;;;;;;;;;;16.40;90.60;;;;;;6094524;23;19990;-96
2022/06/08 01:42:20;;;;;;;;;;;16.50;90.00;;;;;;6107908;23;19961;-96
2022/06/08 01:48:00;;;;;;;;;;;16.50;89.90;;;;;;6119773;23;19942;-96
2022/06/08 01:50:26;;;;;;;;;;;16.40;89.90;;;;;;6093904;23;19950;-96
2022/06/08 01:52:55;;;;;;;;;;;16.40;89.80;;;;;;6093720;23;19937;-97
2022/06/08 01:55:32;;;;;;;;;;;16.30;89.50;;;;;;6093099;23;19945;-96
2022/06/08 01:58:03;;;;;;;;;;;16.30;89.30;;;;;;6093882;23;19937;-96
2022/06/08 02:00:31;;;;;;;;;;;16.30;89.40;;;;;;6093580;23;19941;-96
2022/06/08 02:03:00;;;;;;;;;;;16.20;89.40;;;;;;6093289;23;19958;-96
2022/06/08 02:05:45;;;;;;;;;;;16.10;89.50;;;;;;6092440;23;19945;-96
2022/06/08 02:08:30;;;;;;;;;;;16.00;89.50;;;;;;6086352;23;19946;-96
2022/06/08 02:11:00;;;;;;;;;;;15.90;89.50;;;;;;6089427;23;20053;-96
2022/06/08 02:13:33;;;;;;;;;;;15.80;90.30;;;;;;6114704;23;19984;-96
2022/06/08 02:16:09;;;;;;;;;;;15.80;90.50;;;;;;6086032;23;19973;-96
2022/06/08 02:18:38;;;;;;;;;;;15.80;90.30;;;;;;6091674;23;19952;-96
2022/06/08 02:21:09;;;;;;;;;;;15.80;90.00;;;;;;6092851;23;19985;-96
2022/06/08 02:23:41;;;;;;;;;;;15.80;89.60;;;;;;6092452;23;19936;-96
2022/06/08 02:26:11;;;;;;;;;;;15.90;89.40;;;;;;6092971;23;19963;-96
2022/06/08 02:28:48;;;;;;;;;;;16.00;88.90;;;;;;6117161;23;19963;-96
2022/06/08 02:31:20;;;;;;;;;;;16.00;88.60;;;;;;6118100;23;19985;-96
2022/06/08 02:36:38;;;;;;;;;;;15.80;88.70;;;;;;6117975;23;19959;-96
2022/06/08 02:39:13;;;;;;;;;;;15.70;88.40;;;;;;6117260;23;19974;-96
2022/06/08 02:41:41;;;;;;;;;;;15.60;88.50;;;;;;6116606;23;19952;-96
2022/06/08 02:44:09;;;;;;;;;;;15.70;88.80;;;;;;6091844;23;19973;-96
2022/06/08 02:46:54;;;;;;;;;;;15.70;88.60;;;;;;6092451;23;19940;-96
2022/06/08 02:49:20;;;;;;;;;;;15.70;88.70;;;;;;6091423;23;19940;-96
2022/06/08 02:51:49;;;;;;;;;;;15.60;88.80;;;;;;6117371;23;19945;-96
2022/06/08 02:54:23;;;;;;;;;;;15.80;89.20;;;;;;6092896;23;19998;-96
2022/06/08 02:56:52;;;;;;;;;;;15.70;89.30;;;;;;6093661;23;19990;-96
2022/06/08 02:59:22;;;;;;;;;;;15.70;89.00;;;;;;6092605;23;19971;-96
2022/06/08 03:02:05;;;;;;;;;;;15.40;88.70;;;;;;6118868;23;19954;-96
2022/06/08 03:04:37;;;;;;;;;;;15.20;87.70;;;;;;6093532;23;19968;-96
2022/06/08 03:07:12;;;;;;;;;;;15.00;88.00;;;;;;6091963;23;19974;-96
2022/06/08 03:09:39;;;;;;;;;;;14.90;88.50;;;;;;6103182;23;19979;-96
2022/06/08 03:12:10;;;;;;;;;;;15.10;89.40;;;;;;6147579;23;19974;-96
2022/06/08 03:14:39;;;;;;;;;;;15.30;89.40;;;;;;6149099;23;20358;-96
2022/06/08 03:17:11;;;;;;;;;;;15.30;89.50;;;;;;6149363;23;19944;-96
2022/06/08 03:19:37;;;;;;;;;;;15.40;89.30;;;;;;6150483;23;19935;-96
2022/06/08 03:22:04;;;;;;;;;;;15.40;89.40;;;;;;6150523;23;19988;-96
2022/06/08 03:24:30;;;;;;;;;;;15.30;89.00;;;;;;6149598;23;19937;-96
2022/06/08 03:26:58;;;;;;;;;;;15.20;88.80;;;;;;6172389;23;19949;-96
2022/06/08 03:29:24;;;;;;;;;;;15.10;89.10;;;;;;6178272;23;19938;-96
2022/06/08 03:31:50;;;;;;;;;;;15.10;89.30;;;;;;6178396;23;19947;-96
2022/06/08 03:34:17;;;;;;;;;;;15.20;89.40;;;;;;6173689;23;19961;-96
2022/06/08 03:36:43;;;;;;;;;;;15.30;89.70;;;;;;6172374;23;19950;-96
2022/06/08 03:39:09;;;;;;;;;;;15.20;90.10;;;;;;6176536;23;19938;-96
2022/06/08 03:41:35;;;;;;;;;;;15.30;89.90;;;;;;6201123;23;20440;-96
2022/06/08 03:44:04;;;;;;;;;;;15.20;89.40;;;;;;6179057;23;19936;-96
2022/06/08 03:46:39;;;;;;;;;;;15.00;89.00;;;;;;6178876;23;19929;-96
2022/06/08 03:49:07;;;;;;;;;;;15.00;88.90;;;;;;6178386;23;19943;-96
2022/06/08 03:51:40;;;;;;;;;;;15.10;88.80;;;;;;6180811;23;19948;-96
2022/06/08 03:54:12;;;;;;;;;;;15.10;89.10;;;;;;6179139;23;19939;-96
2022/06/08 03:56:40;;;;;;;;;;;15.10;89.50;;;;;;6179117;23;19983;-96
2022/06/08 03:59:07;;;;;;;;;;;15.10;89.60;;;;;;6178671;23;19950;-96
2022/06/08 04:01:35;;;;;;;;;;;15.10;89.70;;;;;;6178248;23;19996;-96
2022/06/08 04:04:02;;;;;;;;;;;15.10;89.90;;;;;;6178587;23;19945;-96
2022/06/08 04:06:31;;;;;;;;;;;15.30;89.70;;;;;;6177835;23;19961;-96
2022/06/08 04:09:00;;;;;;;;;;;15.40;89.30;;;;;;6177219;23;20008;-96
2022/06/08 04:11:27;;;;;;;;;;;15.50;88.90;;;;;;6179164;23;19975;-96
2022/06/08 04:13:53;;;;;;;;;;;15.60;88.70;;;;;;6153823;23;19945;-96
2022/06/08 04:16:23;;;;;;;;;;;15.50;88.50;;;;;;6179120;23;19942;-96
2022/06/08 04:18:49;;;;;;;;;;;15.40;88.80;;;;;;6153473;23;20011;-96
2022/06/08 04:21:16;;;;;;;;;;;15.40;89.10;;;;;;6154425;23;19960;-96
2022/06/08 04:23:45;;;;;;;;;;;15.50;89.10;;;;;;6154392;23;19941;-96
2022/06/08 04:26:12;;;;;;;;;;;15.60;88.90;;;;;;6179524;23;20397;-96
2022/06/08 04:28:38;;;;;;;;;;;15.50;88.30;;;;;;6179514;23;19940;-96
2022/06/08 04:31:06;;;;;;;;;;;15.30;89.50;;;;;;6153435;23;19941;-96
2022/06/08 04:33:33;;;;;;;;;;;15.30;89.90;;;;;;6177767;23;19938;-96
2022/06/08 04:35:59;;;;;;;;;;;15.30;90.20;;;;;;6153247;23;19936;-96
2022/06/08 04:38:25;;;;;;;;;;;15.40;90.40;;;;;;6176470;23;19939;-96
2022/06/08 04:40:51;;;;;;;;;;;15.50;90.40;;;;;;6151902;23;19950;-96
2022/06/08 04:43:18;;;;;;;;;;;15.60;90.30;;;;;;6152076;23;19965;-96
2022/06/08 04:45:46;;;;;;;;;;;15.70;90.40;;;;;;6179113;23;19938;-96
2022/06/08 04:48:13;;;;;;;;;;;15.80;90.70;;;;;;6179348;23;19940;-96
2022/06/08 04:50:41;;;;;;;;;;;15.90;90.70;;;;;;6179540;23;19942;-96
2022/06/08 04:53:12;;;;;;;;;;;16.10;90.30;;;;;;6154699;23;19942;-96
2022/06/08 04:55:42;;;;;;;;;;;16.20;90.10;;;;;;6180972;23;19933;-96
2022/06/08 04:58:13;;;;;;;;;;;16.30;90.00;;;;;;6155027;23;19938;-96
2022/06/08 05:00:40;;;;;;;;;;;16.30;89.90;;;;;;6153402;23;19942;-96
2022/06/08 05:03:07;;;;;;;;;;;16.50;89.90;;;;;;6155628;23;19966;-96
2022/06/08 05:05:34;;;;;;;;;;;16.70;89.70;;;;;;6156248;23;19938;-96
2022/06/08 05:08:04;;;;;;;;;;;16.80;89.00;;;;;;6177880;23;19939;-96
2022/06/08 05:10:31;;;;;;;;;;;16.90;89.00;;;;;;6166697;23;19964;-96
2022/06/08 05:12:59;;;;;;;;;;;16.90;88.70;;;;;;6179425;23;20250;-96
2022/06/08 05:15:36;;;;;;;;;;;17.00;88.70;;;;;;6181491;23;19944;-96
2022/06/08 05:18:04;;;;;;;;;;;17.10;88.30;;;;;;6180251;23;19978;-96
2022/06/08 05:20:30;;;;;;;;;;;17.10;88.30;;;;;;6180239;23;19967;-96
2022/06/08 05:23:00;;;;;;;;;;;17.20;88.50;;;;;;6180780;23;20002;-96
2022/06/08 05:25:34;;;;;;;;;;;17.20;88.10;;;;;;6176365;23;19942;-96
2022/06/08 05:28:02;;;;;;;;;;;17.30;87.00;;;;;;6180969;23;19946;-96
2022/06/08 05:30:33;;;;;;;;;;;17.40;87.00;;;;;;6155057;23;19991;-97
2022/06/08 05:33:06;;;;;;;;;;;17.50;87.40;;;;;;6181137;23;19944;-96
2022/06/08 05:35:34;;;;;;;;;;;17.60;87.50;;;;;;6180388;23;19920;-96
2022/06/08 05:38:00;;;;;;;;;;;17.60;87.50;;;;;;6179759;23;19935;-96
2022/06/08 05:40:34;;;;;;;;;;;17.70;87.10;;;;;;6179208;23;19963;-96
2022/06/08 05:43:05;;;;;;;;;;;17.70;86.90;;;;;;6180096;23;19982;-96
2022/06/08 05:45:40;;;;;;;;;;;17.80;86.40;;;;;;6180197;23;19957;-96
2022/06/08 05:48:07;;;;;;;;;;;17.90;86.10;;;;;;6177632;23;19936;-96
2022/06/08 05:50:48;;;;;;;;;;;18.00;85.70;;;;;;6179600;23;19972;-96
2022/06/08 05:53:15;;;;;;;;;;;18.00;85.10;;;;;;6182279;23;19973;-96
2022/06/08 05:55:51;;;;;;;;;;;18.10;84.60;;;;;;6183111;23;19949;-96
2022/06/08 05:58:19;;;;;;;;;;;18.30;84.20;;;;;;6181919;23;19999;-97
2022/06/08 06:03:35;;;;;;;;;;;18.40;83.20;;;;;;6169078;23;19991;-96
2022/06/08 06:06:01;;;;;;;;;;;18.60;82.70;;;;;;6156922;23;19945;-96
2022/06/08 06:08:27;;;;;;;;;;;18.70;82.20;;;;;;6152116;23;19957;-96
2022/06/08 06:10:56;;;;;;;;;;;18.80;82.00;;;;;;6176856;23;19938;-96
2022/06/08 06:13:24;;;;;;;;;;;18.80;80.70;;;;;;6151158;23;19936;-96
2022/06/08 06:15:50;;;;;;;;;;;19.00;81.10;;;;;;6151249;23;19940;-96
2022/06/08 06:18:16;;;;;;;;;;;19.10;81.10;;;;;;6149400;23;19942;-96
2022/06/08 06:20:45;;;;;;;;;;;19.20;79.80;;;;;;6178905;23;19943;-96
2022/06/08 06:23:12;;;;;;;;;;;19.20;79.50;;;;;;6155875;23;19974;-96
2022/06/08 06:25:39;;;;;;;;;;;19.30;79.70;;;;;;6167851;23;19960;-96
2022/06/08 06:28:08;;;;;;;;;;;19.30;79.40;;;;;;6184645;23;19935;-96
2022/06/08 06:30:37;;;;;;;;;;;19.30;79.20;;;;;;6211576;23;19995;-96
2022/06/08 06:33:13;;;;;;;;;;;19.30;78.40;;;;;;6212019;23;19932;-97
2022/06/08 06:35:41;;;;;;;;;;;19.40;78.90;;;;;;6186814;23;19965;-96
2022/06/08 06:38:11;;;;;;;;;;;19.40;78.70;;;;;;6185802;23;19946;-96
2022/06/08 06:40:43;;;;;;;;;;;19.50;76.70;;;;;;6213420;23;19930;-96
2022/06/08 06:43:17;;;;;;;;;;;19.60;75.30;;;;;;6185701;23;19947;-96
2022/06/08 06:45:46;;;;;;;;;;;19.70;73.80;;;;;;6185742;23;20006;-96
2022/06/08 06:48:16;;;;;;;;;;;19.70;73.60;;;;;;6144452;23;19957;-96
2022/06/08 06:50:54;;;;;;;;;;;19.90;73.50;;;;;;6205920;23;19924;-96
2022/06/08 06:53:25;;;;;;;;;;;19.90;73.00;;;;;;6214545;23;19924;-96
2022/06/08 06:55:52;;;;;;;;;;;20.00;73.60;;;;;;6186507;23;19952;-96
2022/06/08 06:58:18;;;;;;;;;;;20.10;71.60;;;;;;6183751;23;19935;-96
2022/06/08 07:00:43;;;;;;;;;;;20.10;72.60;;;;;;6188570;23;19951;-96
2022/06/08 07:03:09;;;;;;;;;;;20.20;73.00;;;;;;6156842;23;20308;-96
2022/06/08 07:05:35;;;;;;;;;;;20.30;73.90;;;;;;6182819;23;20006;-95
2022/06/08 07:08:00;;;;;;;;;;;20.30;74.20;;;;;;6158358;23;19935;-96
2022/06/08 07:10:26;;;;;;;;;;;20.40;73.10;;;;;;6158041;23;20242;-96
2022/06/08 07:12:52;;;;;;;;;;;20.40;73.10;;;;;;6157785;23;19939;-96
2022/06/08 07:15:18;;;;;;;;;;;20.50;72.40;;;;;;6158012;23;19939;-96
2022/06/08 07:17:44;;;;;;;;;;;20.60;73.40;;;;;;6158053;23;20361;-96
2022/06/08 07:20:11;;;;;;;;;;;20.80;73.90;;;;;;6156671;23;19945;-95
2022/06/08 07:22:36;;;;;;;;;;;20.80;71.80;;;;;;6158438;23;19942;-94
2022/06/08 07:25:03;;;;;;;;;;;20.80;71.50;;;;;;6158111;23;20003;-94
2022/06/08 07:27:28;;;;;;;;;;;20.90;71.30;;;;;;6157899;23;19941;-95
2022/06/08 07:29:55;;;;;;;;;;;20.90;69.40;;;;;;6157898;23;20356;-95
2022/06/08 07:32:20;;;;;;;;;;;20.90;67.80;;;;;;6158438;23;19923;-94
2022/06/08 07:34:46;;;;;;;;;;;21.00;68.30;;;;;;6158201;23;20358;-95
2022/06/08 07:37:12;;;;;;;;;;;21.10;70.10;;;;;;6157919;23;19942;-95
2022/06/08 07:39:37;;;;;;;;;;;21.10;68.20;;;;;;6158125;23;20304;-95
2022/06/08 07:42:03;;;;;;;;;;;21.20;69.50;;;;;;6157819;23;20378;-94
2022/06/08 07:44:29;;;;;;;;;;;21.30;68.00;;;;;;6157813;23;20268;-94
2022/06/08 07:46:54;;;;;;;;;;;21.30;65.90;;;;;;6157692;23;20350;-93
2022/06/08 07:49:37;;;;;;;;;;;21.40;65.20;;;;;;6158053;23;20293;-94
2022/06/08 07:52:06;;;;;;;;;;;21.50;67.90;;;;;;6156704;23;20370;-94
2022/06/08 07:54:32;;;;;;;;;;;21.60;67.10;;;;;;6157491;23;19992;-94
2022/06/08 07:56:58;;;;;;;;;;;21.70;67.30;;;;;;6157688;23;20414;-94
2022/06/08 07:59:25;;;;;;;;;;;21.70;68.40;;;;;;6157694;23;20008;-94
2022/06/08 08:01:52;;;;;;;;;;;21.70;67.80;;;;;;6157214;23;19951;-94
2022/06/08 08:04:17;;;;;;;;;;;21.70;66.70;;;;;;6181995;23;19969;-94
2022/06/08 08:06:43;;;;;;;;;;;21.80;67.80;;;;;;6187192;23;19938;-94
2022/06/08 08:09:13;;;;;;;;;;;21.80;63.80;;;;;;6187316;23;19962;-94
2022/06/08 08:11:39;;;;;;;;;;;21.90;65.80;;;;;;6187415;23;19980;-94
2022/06/08 08:14:05;;;;;;;;;;;21.90;64.30;;;;;;6187475;23;19939;-95
2022/06/08 08:16:31;;;;;;;;;;;22.00;64.90;;;;;;6187417;23;20268;-94
2022/06/08 08:18:57;;;;;;;;;;;22.00;64.90;;;;;;6187414;23;19940;-94
2022/06/08 08:21:24;;;;;;;;;;;22.10;67.00;;;;;;6187584;23;19939;-94
2022/06/08 08:23:50;;;;;;;;;;;22.30;65.50;;;;;;6187569;23;19934;-94
2022/06/08 08:26:16;;;;;;;;;;;22.30;63.50;;;;;;6187375;23;19980;-94
2022/06/08 08:28:41;;;;;;;;;;;22.30;63.20;;;;;;6160926;23;19934;-94
2022/06/08 08:31:07;;;;;;;;;;;22.30;62.90;;;;;;6186686;23;19946;-94
2022/06/08 08:33:33;;;;;;;;;;;22.30;63.40;;;;;;6187162;23;20354;-94
2022/06/08 08:35:58;;;;;;;;;;;22.40;63.50;;;;;;6187184;23;19931;-93
2022/06/08 08:38:24;;;;;;;;;;;22.50;62.90;;;;;;6187470;23;19947;-93
2022/06/08 08:40:53;;;;;;;;;;;22.60;62.40;;;;;;6187079;23;20243;-94
2022/06/08 08:43:21;;;;;;;;;;;22.70;60.70;;;;;;6186733;23;19950;-95
2022/06/08 08:45:50;;;;;;;;;;;22.80;63.80;;;;;;6187094;23;19931;-95
2022/06/08 08:48:24;;;;;;;;;;;22.80;60.90;;;;;;6187062;23;19940;-95
2022/06/08 08:51:09;;;;;;;;;;;23.00;62.10;;;;;;6186915;23;19941;-95
2022/06/08 08:53:53;;;;;;;;;;;23.20;61.20;;;;;;6186810;23;20390;-95
2022/06/08 08:56:24;;;;;;;;;;;23.30;60.60;;;;;;6186840;23;19974;-94
2022/06/08 08:58:50;;;;;;;;;;;23.40;61.30;;;;;;6186793;23;19944;-95
2022/06/08 09:01:16;;;;;;;;;;;23.50;58.60;;;;;;6186654;23;19932;-94
2022/06/08 09:03:49;;;;;;;;;;;23.60;57.40;;;;;;6186518;23;20262;-95
2022/06/08 09:06:17;;;;;;;;;;;23.60;59.10;;;;;;6187633;23;19939;-95
2022/06/08 09:08:45;;;;;;;;;;;23.70;58.80;;;;;;6160310;23;19934;-94
2022/06/08 09:11:13;;;;;;;;;;;23.80;60.20;;;;;;6186828;23;20017;-95
2022/06/08 09:13:54;;;;;;;;;;;23.90;59.20;;;;;;6186828;23;19930;-95
2022/06/08 09:16:37;;;;;;;;;;;24.00;59.50;;;;;;6186817;23;19927;-94
2022/06/08 09:19:21;;;;;;;;;;;24.00;56.00;;;;;;6187250;23;19945;-94
2022/06/08 09:21:47;;;;;;;;;;;24.00;57.80;;;;;;6186979;23;20379;-95
2022/06/08 09:24:28;;;;;;;;;;;24.00;58.70;;;;;;6186573;23;19988;-95
2022/06/08 09:27:11;;;;;;;;;;;24.00;58.20;;;;;;6160117;23;19952;-95
2022/06/08 09:29:46;;;;;;;;;;;24.10;58.00;;;;;;6186534;23;19983;-95
2022/06/08 09:32:27;;;;;;;;;;;24.20;58.30;;;;;;6186645;23;19933;-95
2022/06/08 09:34:53;;;;;;;;;;;24.30;58.90;;;;;;6186810;23;19939;-95
2022/06/08 09:37:26;;;;;;;;;;;24.30;59.30;;;;;;6186957;23;19933;-95
2022/06/08 09:39:53;;;;;;;;;;;24.40;56.60;;;;;;6186719;23;19939;-95
2022/06/08 09:42:24;;;;;;;;;;;24.50;56.10;;;;;;6186572;23;20373;-95
2022/06/08 09:44:58;;;;;;;;;;;24.50;55.80;;;;;;6186560;23;20349;-96
2022/06/08 09:53:20;;;;;;;;;;;24.70;55.00;;;;;;6186550;23;19945;-95
2022/06/08 09:55:59;;;;;;;;;;;24.70;58.40;;;;;;6186423;23;19935;-95
2022/06/08 09:58:27;;;;;;;;;;;24.80;59.40;;;;;;6186509;23;19948;-95
2022/06/08 10:01:14;;;;;;;;;;;25.10;58.20;;;;;;6186604;23;19926;-95
2022/06/08 10:03:58;;;;;;;;;;;25.20;55.20;;;;;;6186060;23;20045;-95
2022/06/08 10:06:26;;;;;;;;;;;25.20;52.80;;;;;;6186407;23;19937;-95
2022/06/08 10:09:01;;;;;;;;;;;25.20;54.00;;;;;;6186515;23;19940;-95
2022/06/08 10:11:44;;;;;;;;;;;25.30;56.40;;;;;;6186531;23;19965;-95
2022/06/08 10:14:20;;;;;;;;;;;25.20;54.30;;;;;;6186065;23;20341;-96
2022/06/08 10:16:47;;;;;;;;;;;25.20;54.60;;;;;;6186217;23;19932;-95
2022/06/08 10:19:23;;;;;;;;;;;25.30;51.70;;;;;;6186778;23;20305;-95
2022/06/08 10:21:49;;;;;;;;;;;25.30;53.00;;;;;;6159630;23;20393;-95
2022/06/08 10:24:22;;;;;;;;;;;25.30;54.50;;;;;;6187532;23;19945;-95
2022/06/08 10:26:50;;;;;;;;;;;25.50;54.60;;;;;;6162074;23;19943;-95
2022/06/08 10:29:22;;;;;;;;;;;25.60;56.30;;;;;;6188770;23;19941;-96
2022/06/08 10:31:48;;;;;;;;;;;25.60;52.70;;;;;;6188785;23;19940;-95
2022/06/08 10:34:17;;;;;;;;;;;25.70;52.90;;;;;;6188821;23;19946;-95
2022/06/08 10:36:44;;;;;;;;;;;25.70;54.10;;;;;;6188951;23;19973;-95
2022/06/08 10:39:11;;;;;;;;;;;25.80;51.70;;;;;;6188744;23;19936;-95
2022/06/08 10:44:25;;;;;;;;;;;25.90;52.80;;;;;;6188362;23;19983;-95
2022/06/08 10:46:51;;;;;;;;;;;25.90;48.80;;;;;;6188360;23;20343;-96
2022/06/08 10:49:29;;;;;;;;;;;26.00;50.70;;;;;;6188563;23;19946;-95
2022/06/08 10:52:13;;;;;;;;;;;26.10;50.70;;;;;;6188928;23;19990;-96
2022/06/08 10:54:58;;;;;;;;;;;26.20;53.30;;;;;;6188010;23;19933;-96
2022/06/08 10:57:36;;;;;;;;;;;26.10;49.00;;;;;;6188941;23;19993;-95
2022/06/08 11:00:19;;;;;;;;;;;26.20;50.60;;;;;;6188547;23;19935;-95
2022/06/08 11:03:03;;;;;;;;;;;26.00;49.40;;;;;;6188117;23;19949;-95
2022/06/08 11:05:42;;;;;;;;;;;26.20;49.40;;;;;;6188086;23;19965;-95
2022/06/08 11:08:08;;;;;;;;;;;26.30;46.20;;;;;;6188635;23;20341;-96
2022/06/08 11:10:53;;;;;;;;;;;26.40;48.40;;;;;;6188793;23;19964;-95
2022/06/08 11:13:22;;;;;;;;;;;26.60;47.90;;;;;;6188026;23;20020;-95
2022/06/08 11:15:47;;;;;;;;;;;26.80;49.20;;;;;;6188398;23;19936;-95
2022/06/08 11:18:16;;;;;;;;;;;26.80;47.50;;;;;;6188053;23;19962;-95
2022/06/08 11:20:47;;;;;;;;;;;26.80;46.00;;;;;;6187944;23;19984;-95
2022/06/08 11:23:45;;;;;;;;;;;26.90;48.70;;;;;;6188581;23;19959;-95
2022/06/08 11:26:23;;;;;;;;;;;27.10;47.90;;;;;;6122247;23;19960;-96
2022/06/08 11:28:57;;;;;;;;;;;27.50;46.60;;;;;;6187515;23;19937;-95
2022/06/08 11:31:25;;;;;;;;;;;27.70;46.30;;;;;;6187867;23;19945;-95
2022/06/08 11:33:56;;;;;;;;;;;28.10;46.70;;;;;;6187773;23;19932;-96
2022/06/08 11:36:31;;;;;;;;;;;28.20;45.30;;;;;;6188337;23;19971;-95
2022/06/08 11:39:04;;;;;;;;;;;27.70;43.80;;;;;;6188017;23;19996;-95
2022/06/08 11:41:35;;;;;;;;;;;27.50;44.80;;;;;;6187644;23;20260;-95
2022/06/08 11:44:12;;;;;;;;;;;27.20;47.10;;;;;;6187637;23;19945;-95
2022/06/08 11:46:39;;;;;;;;;;;27.50;42.40;;;;;;6187777;23;19933;-94
2022/06/08 11:49:07;;;;;;;;;;;27.70;46.10;;;;;;6187551;23;19946;-95
2022/06/08 11:51:38;;;;;;;;;;;27.90;45.00;;;;;;6188060;23;19940;-94
2022/06/08 11:54:16;;;;;;;;;;;28.20;45.90;;;;;;6187635;23;20019;-95
2022/06/08 11:56:53;;;;;;;;;;;28.40;46.90;;;;;;6187663;23;19938;-95
2022/06/08 11:59:20;;;;;;;;;;;28.30;42.90;;;;;;6187638;23;19943;-95
2022/06/08 12:02:00;;;;;;;;;;;28.40;44.00;;;;;;6187509;23;19959;-95
2022/06/08 12:04:27;;;;;;;;;;;28.50;43.10;;;;;;6187317;23;20027;-95
2022/06/08 12:06:56;;;;;;;;;;;28.50;40.90;;;;;;6187588;23;19985;-95
2022/06/08 12:09:24;;;;;;;;;;;28.80;43.20;;;;;;6187398;23;19947;-95
2022/06/08 12:11:51;;;;;;;;;;;29.00;40.60;;;;;;6187823;23;19939;-95
2022/06/08 12:14:30;;;;;;;;;;;29.40;43.10;;;;;;6187807;23;19991;-95
2022/06/08 12:16:58;;;;;;;;;;;29.70;40.00;;;;;;6187430;23;19965;-95
2022/06/08 12:19:25;;;;;;;;;;;29.50;39.90;;;;;;6187878;23;19985;-95
2022/06/08 12:22:06;;;;;;;;;;;29.70;40.20;;;;;;6187576;23;19982;-95
2022/06/08 12:24:33;;;;;;;;;;;29.70;41.20;;;;;;6187715;23;19935;-95
2022/06/08 12:26:59;;;;;;;;;;;29.70;38.60;;;;;;6187309;23;19949;-95
2022/06/08 12:29:39;;;;;;;;;;;29.50;40.30;;;;;;6187377;23;19944;-95
2022/06/08 12:32:07;;;;;;;;;;;29.30;41.50;;;;;;6187361;23;19936;-95
2022/06/08 12:34:33;;;;;;;;;;;29.60;40.00;;;;;;6188007;23;19937;-95
2022/06/08 12:37:19;;;;;;;;;;;30.10;38.80;;;;;;6187254;23;19936;-95
2022/06/08 12:39:45;;;;;;;;;;;30.40;40.60;;;;;;6187014;23;19949;-95
2022/06/08 12:42:27;;;;;;;;;;;30.80;38.30;;;;;;6187031;23;20362;-95
2022/06/08 12:44:54;;;;;;;;;;;30.90;37.90;;;;;;6187326;23;19978;-95
2022/06/08 12:47:20;;;;;;;;;;;30.40;40.10;;;;;;6186498;23;19929;-94
2022/06/08 12:49:54;;;;;;;;;;;30.10;40.60;;;;;;6187098;23;20001;-94
2022/06/08 12:52:22;;;;;;;;;;;29.70;41.00;;;;;;6187401;23;19936;-94
2022/06/08 12:54:48;;;;;;;;;;;29.50;41.40;;;;;;6186981;23;19954;-95
2022/06/08 12:57:16;;;;;;;;;;;29.00;41.90;;;;;;6187011;23;20253;-95
2022/06/08 12:59:42;;;;;;;;;;;29.30;43.30;;;;;;6186850;23;19938;-95
2022/06/08 13:02:28;;;;;;;;;;;29.50;41.80;;;;;;6186806;23;19960;-95
2022/06/08 13:04:55;;;;;;;;;;;29.20;42.40;;;;;;6186531;23;19991;-95
2022/06/08 13:07:23;;;;;;;;;;;29.00;42.30;;;;;;6186788;23;19940;-95
2022/06/08 13:09:48;;;;;;;;;;;28.80;43.20;;;;;;6187592;23;20026;-95
2022/06/08 13:12:19;;;;;;;;;;;29.00;44.40;;;;;;6186643;23;19977;-94
2022/06/08 13:14:44;;;;;;;;;;;29.20;41.80;;;;;;6186377;23;19948;-95
2022/06/08 13:17:11;;;;;;;;;;;29.30;43.90;;;;;;6186497;23;20339;-94
2022/06/08 13:19:37;;;;;;;;;;;29.60;41.80;;;;;;6186726;23;19937;-95
2022/06/08 13:22:02;;;;;;;;;;;30.20;40.40;;;;;;6186732;23;20322;-95
2022/06/08 13:24:28;;;;;;;;;;;31.50;39.00;;;;;;6186778;23;19932;-95
2022/06/08 13:26:54;;;;;;;;;;;32.70;35.60;;;;;;6186451;23;19953;-95
2022/06/08 13:29:20;;;;;;;;;;;33.50;35.20;;;;;;6187433;23;20262;-95
2022/06/08 13:31:46;;;;;;;;;;;33.50;33.40;;;;;;6186646;23;19937;-95
2022/06/08 13:34:13;;;;;;;;;;;33.20;34.90;;;;;;6186504;23;20241;-95
2022/06/08 13:36:44;;;;;;;;;;;33.10;34.60;;;;;;6186721;23;19942;-95
2022/06/08 13:39:25;;;;;;;;;;;33.30;35.60;;;;;;6160351;23;19935;-94
2022/06/08 13:41:54;;;;;;;;;;;33.10;34.30;;;;;;6186513;23;19956;-94
2022/06/08 13:44:27;;;;;;;;;;;33.20;35.40;;;;;;6186389;23;19942;-95
2022/06/08 13:46:55;;;;;;;;;;;32.60;38.10;;;;;;6186900;23;20015;-95
2022/06/08 13:49:21;;;;;;;;;;;32.20;37.00;;;;;;6186950;23;20271;-95
2022/06/08 13:51:46;;;;;;;;;;;31.60;38.80;;;;;;6186419;23;20016;-95
2022/06/08 13:54:21;;;;;;;;;;;31.30;38.90;;;;;;6186564;23;20308;-95
2022/06/08 13:56:47;;;;;;;;;;;30.80;39.50;;;;;;6186567;23;20312;-95
2022/06/08 13:59:13;;;;;;;;;;;30.40;40.20;;;;;;6186531;23;19938;-94
2022/06/08 14:01:40;;;;;;;;;;;30.70;36.80;;;;;;6186646;23;19958;-94
2022/06/08 14:04:11;;;;;;;;;;;31.70;37.40;;;;;;6186038;23;19983;-95
2022/06/08 14:14:50;;;;;;;;;;;30.70;38.00;;;;;;6186407;23;19976;-95
2022/06/08 14:17:17;;;;;;;;;;;30.50;41.20;;;;;;6186421;23;19939;-95
2022/06/08 14:19:46;;;;;;;;;;;30.10;41.20;;;;;;6159890;23;19944;-94
2022/06/08 14:22:14;;;;;;;;;;;30.30;42.40;;;;;;6186042;23;19963;-95
2022/06/08 14:24:45;;;;;;;;;;;31.10;40.50;;;;;;6186074;23;19992;-95
2022/06/08 14:27:12;;;;;;;;;;;31.80;37.70;;;;;;6186213;23;19937;-95
2022/06/08 14:29:40;;;;;;;;;;;32.70;36.30;;;;;;6186101;23;19935;-94
2022/06/08 14:32:15;;;;;;;;;;;33.30;35.20;;;;;;6186179;23;19932;-95
2022/06/08 14:34:41;;;;;;;;;;;34.70;34.00;;;;;;6186205;23;19948;-95
2022/06/08 14:37:08;;;;;;;;;;;35.20;32.30;;;;;;6186634;23;19968;-95
2022/06/08 14:39:35;;;;;;;;;;;35.30;32.50;;;;;;6159306;23;19943;-95
2022/06/08 14:42:02;;;;;;;;;;;33.40;33.30;;;;;;6186398;23;19959;-95
2022/06/08 14:44:28;;;;;;;;;;;32.70;34.70;;;;;;6185934;23;19941;-95
2022/06/08 14:46:56;;;;;;;;;;;31.70;35.40;;;;;;6186502;23;19969;-94
2022/06/08 14:49:27;;;;;;;;;;;31.30;37.10;;;;;;6186160;23;19944;-95
2022/06/08 14:51:55;;;;;;;;;;;31.80;35.40;;;;;;6159854;23;20335;-94
2022/06/08 14:54:22;;;;;;;;;;;32.30;34.60;;;;;;6159551;23;20248;-95
2022/06/08 14:56:49;;;;;;;;;;;33.40;33.60;;;;;;6186674;23;19939;-95
2022/06/08 14:59:17;;;;;;;;;;;34.70;31.80;;;;;;6186082;23;19937;-95